EYKA/KUN METAR and TAF weather

Enter ICAO airport designator
Station Type Date Time Source
EYKA METAR 2018/10/21 03:50 UTC NOAA

EYKA 210350Z 00000KT 0350 R26/0900D FG VV001 00/M00 Q1025


Station Type Date Time Source
EYKA Decoded METAR 2018/10/21 03:50 UTC NOAA

Kaunas, Lithuania (EYKA) 54-54N 023-55-12E
Oct 20, 2018 - 11:50 PM EDT / 2018.10.21 0350 UTC
Wind: Calm:0
Visibility: less than 1 mile:0
Sky conditions: obscured
Weather: fog
Temperature: 32 F (0 C)
Dew Point: 32 F (0 C)
Relative Humidity: 100%
Pressure (altimeter): 30.27 in. Hg (1025 hPa)
ob: EYKA 210350Z 00000KT 0350 R26/0900D FG VV001 00/M00 Q1025
cycle: 4

Station Type Date Time Source
EYKA TAF 2018/10/20 20:57 UTC NOAA

TAF TAF
AMD EYKA 201950Z 2020/2118 VRB04KT 0300 FG OVC002
BECMG 2107/2108 7000 BKN025
TEMPO 2108/2111 BKN007


Example: see airport list